sensor_id;sensor_type;location;lat;lon;timestamp;P1;durP1;ratioP1;P2;durP2;ratioP2
23684;SDS011;12020;51.384;6.908;2023-01-31T00:00:50;22.80;;;5.82;;
23684;SDS011;12020;51.384;6.908;2023-01-31T00:05:47;22.98;;;6.13;;
23684;SDS011;12020;51.384;6.908;2023-01-31T00:08:26;17.80;;;5.53;;
23684;SDS011;12020;51.384;6.908;2023-01-31T00:10:57;23.25;;;6.00;;
23684;SDS011;12020;51.384;6.908;2023-01-31T00:13:30;17.52;;;5.57;;
23684;SDS011;12020;51.384;6.908;2023-01-31T00:18:27;20.95;;;6.03;;
23684;SDS011;12020;51.384;6.908;2023-01-31T00:20:53;18.88;;;5.38;;
23684;SDS011;12020;51.384;6.908;2023-01-31T00:23:19;17.23;;;5.78;;
23684;SDS011;12020;51.384;6.908;2023-01-31T00:25:45;21.23;;;6.07;;
23684;SDS011;12020;51.384;6.908;2023-01-31T00:30:53;18.83;;;5.43;;
23684;SDS011;12020;51.384;6.908;2023-01-31T00:33:19;20.00;;;5.70;;
23684;SDS011;12020;51.384;6.908;2023-01-31T00:41:07;15.13;;;4.80;;
23684;SDS011;12020;51.384;6.908;2023-01-31T00:43:45;18.27;;;5.38;;
23684;SDS011;12020;51.384;6.908;2023-01-31T00:46:11;18.13;;;5.10;;
23684;SDS011;12020;51.384;6.908;2023-01-31T00:48:38;20.10;;;5.05;;
23684;SDS011;12020;51.384;6.908;2023-01-31T00:51:06;17.92;;;4.88;;
23684;SDS011;12020;51.384;6.908;2023-01-31T00:53:32;17.13;;;5.10;;
23684;SDS011;12020;51.384;6.908;2023-01-31T00:56:05;17.20;;;4.97;;
23684;SDS011;12020;51.384;6.908;2023-01-31T00:58:35;16.03;;;5.07;;
23684;SDS011;12020;51.384;6.908;2023-01-31T01:01:20;15.13;;;4.80;;
23684;SDS011;12020;51.384;6.908;2023-01-31T01:03:55;15.93;;;4.57;;
23684;SDS011;12020;51.384;6.908;2023-01-31T01:06:23;16.65;;;4.55;;
23684;SDS011;12020;51.384;6.908;2023-01-31T01:08:51;21.17;;;5.20;;
23684;SDS011;12020;51.384;6.908;2023-01-31T01:11:24;17.73;;;4.90;;
23684;SDS011;12020;51.384;6.908;2023-01-31T01:13:52;14.97;;;4.87;;
23684;SDS011;12020;51.384;6.908;2023-01-31T01:16:26;15.38;;;4.60;;
23684;SDS011;12020;51.384;6.908;2023-01-31T01:18:57;20.77;;;5.45;;
23684;SDS011;12020;51.384;6.908;2023-01-31T01:21:34;18.33;;;5.28;;
23684;SDS011;12020;51.384;6.908;2023-01-31T01:24:11;17.10;;;5.25;;
23684;SDS011;12020;51.384;6.908;2023-01-31T01:26:48;16.02;;;4.40;;
23684;SDS011;12020;51.384;6.908;2023-01-31T01:29:17;17.33;;;4.93;;
23684;SDS011;12020;51.384;6.908;2023-01-31T01:31:44;18.00;;;4.80;;
23684;SDS011;12020;51.384;6.908;2023-01-31T01:34:11;18.63;;;4.75;;
23684;SDS011;12020;51.384;6.908;2023-01-31T01:36:39;15.98;;;4.75;;
23684;SDS011;12020;51.384;6.908;2023-01-31T01:39:06;18.15;;;4.85;;
23684;SDS011;12020;51.384;6.908;2023-01-31T01:41:39;15.77;;;5.07;;
23684;SDS011;12020;51.384;6.908;2023-01-31T01:47:21;19.63;;;4.88;;
23684;SDS011;12020;51.384;6.908;2023-01-31T01:52:58;14.70;;;4.97;;
23684;SDS011;12020;51.384;6.908;2023-01-31T01:55:35;15.57;;;4.03;;
23684;SDS011;12020;51.384;6.908;2023-01-31T01:58:15;15.85;;;4.50;;
23684;SDS011;12020;51.384;6.908;2023-01-31T02:00:45;15.05;;;4.18;;
23684;SDS011;12020;51.384;6.908;2023-01-31T02:03:12;18.20;;;4.80;;
23684;SDS011;12020;51.384;6.908;2023-01-31T02:08:16;17.50;;;4.47;;
23684;SDS011;12020;51.384;6.908;2023-01-31T02:13:41;16.50;;;4.80;;
23684;SDS011;12020;51.384;6.908;2023-01-31T02:16:16;14.90;;;4.13;;
23684;SDS011;12020;51.384;6.908;2023-01-31T02:18:43;14.82;;;4.25;;
23684;SDS011;12020;51.384;6.908;2023-01-31T02:50:23;14.25;;;4.95;;
23684;SDS011;12020;51.384;6.908;2023-01-31T02:56:06;13.53;;;4.47;;
23684;SDS011;12020;51.384;6.908;2023-01-31T03:04:23;17.88;;;4.68;;
23684;SDS011;12020;51.384;6.908;2023-01-31T03:06:56;17.73;;;4.63;;
23684;SDS011;12020;51.384;6.908;2023-01-31T03:22:24;17.88;;;4.30;;
23684;SDS011;12020;51.384;6.908;2023-01-31T03:25:00;15.15;;;4.45;;
23684;SDS011;12020;51.384;6.908;2023-01-31T03:27:34;14.68;;;4.65;;
23684;SDS011;12020;51.384;6.908;2023-01-31T03:30:09;16.67;;;4.45;;
23684;SDS011;12020;51.384;6.908;2023-01-31T03:38:21;13.50;;;4.40;;
23684;SDS011;12020;51.384;6.908;2023-01-31T03:40:57;14.37;;;3.97;;
23684;SDS011;12020;51.384;6.908;2023-01-31T03:43:38;14.32;;;4.40;;
23684;SDS011;12020;51.384;6.908;2023-01-31T03:46:18;18.42;;;4.40;;
23684;SDS011;12020;51.384;6.908;2023-01-31T03:48:50;20.13;;;5.03;;
23684;SDS011;12020;51.384;6.908;2023-01-31T03:51:21;18.65;;;5.03;;
23684;SDS011;12020;51.384;6.908;2023-01-31T03:54:05;18.33;;;4.88;;
23684;SDS011;12020;51.384;6.908;2023-01-31T03:56:38;17.57;;;5.03;;
23684;SDS011;12020;51.384;6.908;2023-01-31T04:01:48;17.65;;;4.65;;
23684;SDS011;12020;51.384;6.908;2023-01-31T04:04:26;15.80;;;5.25;;
23684;SDS011;12020;51.384;6.908;2023-01-31T04:07:00;18.30;;;5.57;;
23684;SDS011;12020;51.384;6.908;2023-01-31T04:09:27;16.33;;;5.57;;
23684;SDS011;12020;51.384;6.908;2023-01-31T04:11:53;15.67;;;5.80;;
23684;SDS011;12020;51.384;6.908;2023-01-31T04:14:26;14.45;;;5.20;;
23684;SDS011;12020;51.384;6.908;2023-01-31T04:16:52;18.20;;;6.43;;
23684;SDS011;12020;51.384;6.908;2023-01-31T04:19:22;16.95;;;5.88;;
23684;SDS011;12020;51.384;6.908;2023-01-31T04:24:18;17.63;;;6.07;;
23684;SDS011;12020;51.384;6.908;2023-01-31T04:29:18;16.30;;;6.55;;
23684;SDS011;12020;51.384;6.908;2023-01-31T04:31:46;16.20;;;6.00;;
23684;SDS011;12020;51.384;6.908;2023-01-31T04:34:15;15.90;;;6.10;;
23684;SDS011;12020;51.384;6.908;2023-01-31T04:36:43;16.92;;;6.47;;
23684;SDS011;12020;51.384;6.908;2023-01-31T04:39:15;16.77;;;6.90;;
23684;SDS011;12020;51.384;6.908;2023-01-31T04:41:41;17.33;;;7.03;;
23684;SDS011;12020;51.384;6.908;2023-01-31T04:44:19;18.65;;;7.07;;
23684;SDS011;12020;51.384;6.908;2023-01-31T04:46:47;22.60;;;7.00;;
23684;SDS011;12020;51.384;6.908;2023-01-31T04:49:17;18.02;;;6.75;;
23684;SDS011;12020;51.384;6.908;2023-01-31T04:51:43;18.02;;;6.72;;
23684;SDS011;12020;51.384;6.908;2023-01-31T04:54:10;16.57;;;6.33;;
23684;SDS011;12020;51.384;6.908;2023-01-31T04:56:37;17.33;;;6.70;;
23684;SDS011;12020;51.384;6.908;2023-01-31T04:59:17;19.95;;;6.65;;
23684;SDS011;12020;51.384;6.908;2023-01-31T05:01:43;20.70;;;7.53;;
23684;SDS011;12020;51.384;6.908;2023-01-31T05:04:09;20.20;;;6.80;;
23684;SDS011;12020;51.384;6.908;2023-01-31T05:06:44;19.23;;;7.77;;
23684;SDS011;12020;51.384;6.908;2023-01-31T05:09:12;18.02;;;7.15;;
23684;SDS011;12020;51.384;6.908;2023-01-31T05:11:41;20.48;;;7.75;;
23684;SDS011;12020;51.384;6.908;2023-01-31T05:14:16;21.27;;;7.95;;
23684;SDS011;12020;51.384;6.908;2023-01-31T05:16:44;20.25;;;8.25;;
23684;SDS011;12020;51.384;6.908;2023-01-31T05:19:14;16.85;;;7.57;;
23684;SDS011;12020;51.384;6.908;2023-01-31T05:21:43;18.80;;;8.32;;
23684;SDS011;12020;51.384;6.908;2023-01-31T05:24:32;18.55;;;7.80;;
23684;SDS011;12020;51.384;6.908;2023-01-31T05:27:00;18.05;;;7.95;;
23684;SDS011;12020;51.384;6.908;2023-01-31T05:31:59;18.83;;;8.00;;
23684;SDS011;12020;51.384;6.908;2023-01-31T05:34:35;21.75;;;8.70;;
23684;SDS011;12020;51.384;6.908;2023-01-31T05:37:01;20.25;;;8.55;;
23684;SDS011;12020;51.384;6.908;2023-01-31T05:39:27;23.70;;;8.60;;
23684;SDS011;12020;51.384;6.908;2023-01-31T05:42:02;19.55;;;8.50;;
23684;SDS011;12020;51.384;6.908;2023-01-31T05:44:30;19.92;;;8.65;;
23684;SDS011;12020;51.384;6.908;2023-01-31T05:46:59;20.63;;;9.48;;
23684;SDS011;12020;51.384;6.908;2023-01-31T05:49:27;22.05;;;9.35;;
23684;SDS011;12020;51.384;6.908;2023-01-31T05:51:57;23.17;;;8.93;;
23684;SDS011;12020;51.384;6.908;2023-01-31T05:54:27;24.27;;;9.40;;
23684;SDS011;12020;51.384;6.908;2023-01-31T05:57:04;23.40;;;9.27;;
23684;SDS011;12020;51.384;6.908;2023-01-31T05:59:32;20.30;;;8.95;;
23684;SDS011;12020;51.384;6.908;2023-01-31T06:02:05;17.92;;;8.73;;
23684;SDS011;12020;51.384;6.908;2023-01-31T06:04:52;18.63;;;9.55;;
23684;SDS011;12020;51.384;6.908;2023-01-31T06:07:19;18.85;;;9.52;;
23684;SDS011;12020;51.384;6.908;2023-01-31T06:09:48;20.90;;;9.60;;
23684;SDS011;12020;51.384;6.908;2023-01-31T06:12:14;21.08;;;9.75;;
23684;SDS011;12020;51.384;6.908;2023-01-31T06:14:40;22.35;;;9.90;;
23684;SDS011;12020;51.384;6.908;2023-01-31T06:17:16;23.90;;;10.02;;
23684;SDS011;12020;51.384;6.908;2023-01-31T06:19:43;21.17;;;10.18;;
23684;SDS011;12020;51.384;6.908;2023-01-31T06:22:09;23.70;;;10.57;;
23684;SDS011;12020;51.384;6.908;2023-01-31T06:24:38;25.10;;;10.60;;
23684;SDS011;12020;51.384;6.908;2023-01-31T06:29:33;20.40;;;9.82;;
23684;SDS011;12020;51.384;6.908;2023-01-31T06:32:00;22.23;;;9.93;;
23684;SDS011;12020;51.384;6.908;2023-01-31T06:34:29;20.90;;;9.75;;
23684;SDS011;12020;51.384;6.908;2023-01-31T06:36:57;23.35;;;10.18;;
23684;SDS011;12020;51.384;6.908;2023-01-31T06:39:26;22.80;;;10.50;;
23684;SDS011;12020;51.384;6.908;2023-01-31T06:42:03;20.42;;;10.25;;
23684;SDS011;12020;51.384;6.908;2023-01-31T06:44:31;21.05;;;10.05;;
23684;SDS011;12020;51.384;6.908;2023-01-31T06:47:04;21.20;;;11.13;;
23684;SDS011;12020;51.384;6.908;2023-01-31T06:49:37;20.92;;;10.18;;
23684;SDS011;12020;51.384;6.908;2023-01-31T06:52:03;28.00;;;11.35;;
23684;SDS011;12020;51.384;6.908;2023-01-31T06:54:39;20.75;;;9.90;;
23684;SDS011;12020;51.384;6.908;2023-01-31T06:57:06;23.53;;;10.00;;
23684;SDS011;12020;51.384;6.908;2023-01-31T06:59:33;24.52;;;10.02;;
23684;SDS011;12020;51.384;6.908;2023-01-31T07:02:01;22.45;;;10.18;;
23684;SDS011;12020;51.384;6.908;2023-01-31T07:04:30;21.58;;;9.98;;
23684;SDS011;12020;51.384;6.908;2023-01-31T07:07:06;23.70;;;9.85;;
23684;SDS011;12020;51.384;6.908;2023-01-31T07:09:34;22.60;;;9.45;;
23684;SDS011;12020;51.384;6.908;2023-01-31T07:14:31;21.83;;;9.52;;
23684;SDS011;12020;51.384;6.908;2023-01-31T07:16:57;23.13;;;8.93;;
23684;SDS011;12020;51.384;6.908;2023-01-31T07:19:22;14.03;;;5.97;;
23684;SDS011;12020;51.384;6.908;2023-01-31T07:21:50;18.00;;;8.43;;
23684;SDS011;12020;51.384;6.908;2023-01-31T07:24:19;20.83;;;8.60;;
23684;SDS011;12020;51.384;6.908;2023-01-31T07:26:45;22.48;;;8.90;;
23684;SDS011;12020;51.384;6.908;2023-01-31T07:29:10;20.42;;;8.70;;
23684;SDS011;12020;51.384;6.908;2023-01-31T07:31:36;21.15;;;8.82;;
23684;SDS011;12020;51.384;6.908;2023-01-31T07:39:42;20.45;;;8.27;;
23684;SDS011;12020;51.384;6.908;2023-01-31T07:42:18;21.45;;;8.35;;
23684;SDS011;12020;51.384;6.908;2023-01-31T07:44:45;18.85;;;8.10;;
23684;SDS011;12020;51.384;6.908;2023-01-31T07:47:16;20.93;;;8.03;;
23684;SDS011;12020;51.384;6.908;2023-01-31T07:49:41;20.95;;;8.25;;
23684;SDS011;12020;51.384;6.908;2023-01-31T07:52:07;19.57;;;7.77;;
23684;SDS011;12020;51.384;6.908;2023-01-31T07:54:33;19.50;;;7.53;;
23684;SDS011;12020;51.384;6.908;2023-01-31T07:56:58;21.57;;;7.60;;
23684;SDS011;12020;51.384;6.908;2023-01-31T07:59:24;19.80;;;7.73;;
23684;SDS011;12020;51.384;6.908;2023-01-31T08:01:52;20.17;;;7.17;;
23684;SDS011;12020;51.384;6.908;2023-01-31T08:04:42;19.52;;;6.90;;
23684;SDS011;12020;51.384;6.908;2023-01-31T08:07:11;17.02;;;6.88;;
23684;SDS011;12020;51.384;6.908;2023-01-31T08:09:41;16.70;;;6.32;;
23684;SDS011;12020;51.384;6.908;2023-01-31T08:12:07;17.52;;;6.10;;
23684;SDS011;12020;51.384;6.908;2023-01-31T08:14:39;15.52;;;6.47;;
23684;SDS011;12020;51.384;6.908;2023-01-31T08:17:06;17.27;;;6.43;;
23684;SDS011;12020;51.384;6.908;2023-01-31T08:19:32;16.05;;;6.32;;
23684;SDS011;12020;51.384;6.908;2023-01-31T08:21:58;15.30;;;6.32;;
23684;SDS011;12020;51.384;6.908;2023-01-31T08:24:25;14.98;;;6.28;;
23684;SDS011;12020;51.384;6.908;2023-01-31T08:26:50;14.90;;;6.20;;
23684;SDS011;12020;51.384;6.908;2023-01-31T08:29:16;15.70;;;5.80;;
23684;SDS011;12020;51.384;6.908;2023-01-31T08:31:42;16.00;;;6.37;;
23684;SDS011;12020;51.384;6.908;2023-01-31T08:34:08;14.63;;;5.43;;
23684;SDS011;12020;51.384;6.908;2023-01-31T08:36:35;16.83;;;6.00;;
23684;SDS011;12020;51.384;6.908;2023-01-31T08:39:01;17.85;;;6.07;;
23684;SDS011;12020;51.384;6.908;2023-01-31T08:41:28;14.20;;;6.18;;
23684;SDS011;12020;51.384;6.908;2023-01-31T08:43:55;13.77;;;5.70;;
23684;SDS011;12020;51.384;6.908;2023-01-31T08:46:29;14.32;;;6.03;;
23684;SDS011;12020;51.384;6.908;2023-01-31T08:49:00;15.95;;;5.63;;
23684;SDS011;12020;51.384;6.908;2023-01-31T08:51:38;17.87;;;6.27;;
23684;SDS011;12020;51.384;6.908;2023-01-31T08:56:44;16.57;;;5.50;;
23684;SDS011;12020;51.384;6.908;2023-01-31T08:59:11;18.90;;;5.93;;
23684;SDS011;12020;51.384;6.908;2023-01-31T09:01:37;15.50;;;5.75;;
23684;SDS011;12020;51.384;6.908;2023-01-31T09:04:03;16.52;;;5.97;;
23684;SDS011;12020;51.384;6.908;2023-01-31T09:06:29;16.93;;;5.70;;
23684;SDS011;12020;51.384;6.908;2023-01-31T09:08:58;16.87;;;5.90;;
23684;SDS011;12020;51.384;6.908;2023-01-31T09:11:25;12.40;;;5.27;;
23684;SDS011;12020;51.384;6.908;2023-01-31T09:13:52;13.48;;;5.32;;
23684;SDS011;12020;51.384;6.908;2023-01-31T09:16:18;15.57;;;5.30;;
23684;SDS011;12020;51.384;6.908;2023-01-31T09:18:45;13.35;;;5.03;;
23684;SDS011;12020;51.384;6.908;2023-01-31T09:21:15;17.35;;;5.28;;
23684;SDS011;12020;51.384;6.908;2023-01-31T09:23:43;15.10;;;5.40;;
23684;SDS011;12020;51.384;6.908;2023-01-31T09:26:13;15.27;;;5.18;;
23684;SDS011;12020;51.384;6.908;2023-01-31T09:28:40;13.52;;;4.80;;
23684;SDS011;12020;51.384;6.908;2023-01-31T09:31:10;12.38;;;4.82;;
23684;SDS011;12020;51.384;6.908;2023-01-31T09:33:37;14.93;;;4.63;;
23684;SDS011;12020;51.384;6.908;2023-01-31T09:36:04;12.68;;;4.97;;
23684;SDS011;12020;51.384;6.908;2023-01-31T09:38:53;14.90;;;4.80;;
23684;SDS011;12020;51.384;6.908;2023-01-31T09:41:34;15.18;;;4.55;;
23684;SDS011;12020;51.384;6.908;2023-01-31T09:44:42;12.73;;;4.70;;
23684;SDS011;12020;51.384;6.908;2023-01-31T09:49:50;11.43;;;4.30;;
23684;SDS011;12020;51.384;6.908;2023-01-31T09:52:20;12.40;;;4.67;;
23684;SDS011;12020;51.384;6.908;2023-01-31T09:54:47;16.80;;;5.10;;
23684;SDS011;12020;51.384;6.908;2023-01-31T10:00:18;12.82;;;4.32;;
23684;SDS011;12020;51.384;6.908;2023-01-31T10:03:01;14.07;;;4.72;;
23684;SDS011;12020;51.384;6.908;2023-01-31T10:08:12;13.32;;;4.97;;
23684;SDS011;12020;51.384;6.908;2023-01-31T10:10:58;15.53;;;4.70;;
23684;SDS011;12020;51.384;6.908;2023-01-31T10:13:29;15.43;;;4.63;;
23684;SDS011;12020;51.384;6.908;2023-01-31T10:18:49;14.57;;;4.80;;
23684;SDS011;12020;51.384;6.908;2023-01-31T10:21:21;13.55;;;5.30;;
23684;SDS011;12020;51.384;6.908;2023-01-31T10:23:59;11.98;;;5.05;;
23684;SDS011;12020;51.384;6.908;2023-01-31T10:26:36;12.43;;;4.82;;
23684;SDS011;12020;51.384;6.908;2023-01-31T10:29:16;14.75;;;5.00;;
23684;SDS011;12020;51.384;6.908;2023-01-31T10:34:25;16.55;;;5.57;;
23684;SDS011;12020;51.384;6.908;2023-01-31T10:37:36;12.88;;;5.38;;
23684;SDS011;12020;51.384;6.908;2023-01-31T10:40:17;14.20;;;5.43;;
23684;SDS011;12020;51.384;6.908;2023-01-31T10:42:50;15.75;;;5.68;;
23684;SDS011;12020;51.384;6.908;2023-01-31T10:45:21;14.37;;;5.80;;
23684;SDS011;12020;51.384;6.908;2023-01-31T10:47:56;14.98;;;5.70;;
23684;SDS011;12020;51.384;6.908;2023-01-31T10:56:11;14.75;;;5.38;;
23684;SDS011;12020;51.384;6.908;2023-01-31T10:58:47;14.80;;;5.50;;
23684;SDS011;12020;51.384;6.908;2023-01-31T11:01:14;14.48;;;4.95;;
23684;SDS011;12020;51.384;6.908;2023-01-31T11:03:44;12.60;;;5.00;;
23684;SDS011;12020;51.384;6.908;2023-01-31T11:06:13;12.85;;;4.95;;
23684;SDS011;12020;51.384;6.908;2023-01-31T11:08:46;14.35;;;6.00;;
23684;SDS011;12020;51.384;6.908;2023-01-31T11:11:17;11.45;;;5.55;;
23684;SDS011;12020;51.384;6.908;2023-01-31T11:16:33;13.88;;;5.50;;
23684;SDS011;12020;51.384;6.908;2023-01-31T11:19:14;14.85;;;5.50;;
23684;SDS011;12020;51.384;6.908;2023-01-31T11:21:49;14.20;;;5.57;;
23684;SDS011;12020;51.384;6.908;2023-01-31T11:24:19;12.50;;;5.68;;
23684;SDS011;12020;51.384;6.908;2023-01-31T11:26:51;11.10;;;5.40;;
23684;SDS011;12020;51.384;6.908;2023-01-31T11:29:35;14.98;;;5.90;;
23684;SDS011;12020;51.384;6.908;2023-01-31T11:32:05;13.75;;;5.45;;
23684;SDS011;12020;51.384;6.908;2023-01-31T11:37:22;14.82;;;6.15;;
23684;SDS011;12020;51.384;6.908;2023-01-31T11:39:58;11.33;;;6.00;;
23684;SDS011;12020;51.384;6.908;2023-01-31T11:42:52;15.55;;;6.38;;
23684;SDS011;12020;51.384;6.908;2023-01-31T11:45:23;12.25;;;5.88;;
23684;SDS011;12020;51.384;6.908;2023-01-31T11:47:53;15.43;;;6.20;;
23684;SDS011;12020;51.384;6.908;2023-01-31T11:52:59;10.82;;;5.88;;
23684;SDS011;12020;51.384;6.908;2023-01-31T11:58:15;16.30;;;6.72;;
23684;SDS011;12020;51.384;6.908;2023-01-31T12:01:26;14.85;;;6.53;;
23684;SDS011;12020;51.384;6.908;2023-01-31T12:03:57;14.27;;;6.05;;
23684;SDS011;12020;51.384;6.908;2023-01-31T12:06:58;14.70;;;6.70;;
23684;SDS011;12020;51.384;6.908;2023-01-31T12:15:01;15.18;;;6.50;;
23684;SDS011;12020;51.384;6.908;2023-01-31T12:17:53;12.52;;;6.63;;
23684;SDS011;12020;51.384;6.908;2023-01-31T12:20:43;15.30;;;6.68;;
23684;SDS011;12020;51.384;6.908;2023-01-31T12:26:39;13.98;;;6.78;;
23684;SDS011;12020;51.384;6.908;2023-01-31T12:29:46;13.35;;;6.60;;
23684;SDS011;12020;51.384;6.908;2023-01-31T12:44:26;14.25;;;7.07;;
23684;SDS011;12020;51.384;6.908;2023-01-31T12:58:09;12.95;;;7.32;;
23684;SDS011;12020;51.384;6.908;2023-01-31T13:06:35;11.57;;;7.33;;
23684;SDS011;12020;51.384;6.908;2023-01-31T13:09:12;11.93;;;7.85;;
23684;SDS011;12020;51.384;6.908;2023-01-31T13:11:47;14.40;;;8.20;;
23684;SDS011;12020;51.384;6.908;2023-01-31T13:14:20;17.38;;;8.48;;
23684;SDS011;12020;51.384;6.908;2023-01-31T13:16:55;16.00;;;8.85;;
23684;SDS011;12020;51.384;6.908;2023-01-31T13:21:57;17.70;;;9.27;;
23684;SDS011;12020;51.384;6.908;2023-01-31T13:24:27;15.50;;;9.38;;
23684;SDS011;12020;51.384;6.908;2023-01-31T13:26:58;18.02;;;9.60;;
23684;SDS011;12020;51.384;6.908;2023-01-31T13:43:54;18.48;;;11.00;;
23684;SDS011;12020;51.384;6.908;2023-01-31T13:49:43;16.75;;;10.65;;
23684;SDS011;12020;51.384;6.908;2023-01-31T13:52:46;17.42;;;11.30;;
23684;SDS011;12020;51.384;6.908;2023-01-31T13:58:30;18.98;;;11.90;;
23684;SDS011;12020;51.384;6.908;2023-01-31T14:01:00;16.98;;;11.48;;
23684;SDS011;12020;51.384;6.908;2023-01-31T14:12:30;17.77;;;12.15;;
23684;SDS011;12020;51.384;6.908;2023-01-31T14:15:41;17.80;;;12.73;;
23684;SDS011;12020;51.384;6.908;2023-01-31T14:18:33;19.27;;;11.95;;
23684;SDS011;12020;51.384;6.908;2023-01-31T14:23:58;16.67;;;12.38;;
23684;SDS011;12020;51.384;6.908;2023-01-31T14:29:15;17.35;;;11.80;;
23684;SDS011;12020;51.384;6.908;2023-01-31T14:31:54;17.90;;;12.10;;
23684;SDS011;12020;51.384;6.908;2023-01-31T14:34:28;20.53;;;12.20;;
23684;SDS011;12020;51.384;6.908;2023-01-31T14:43:07;17.52;;;12.23;;
23684;SDS011;12020;51.384;6.908;2023-01-31T14:54:31;16.85;;;12.10;;
23684;SDS011;12020;51.384;6.908;2023-01-31T14:57:41;13.60;;;11.90;;
23684;SDS011;12020;51.384;6.908;2023-01-31T15:00:28;13.38;;;11.55;;
23684;SDS011;12020;51.384;6.908;2023-01-31T15:03:37;14.98;;;12.45;;
23684;SDS011;12020;51.384;6.908;2023-01-31T15:06:14;16.98;;;12.65;;
23684;SDS011;12020;51.384;6.908;2023-01-31T15:08:49;16.58;;;12.45;;
23684;SDS011;12020;51.384;6.908;2023-01-31T15:14:52;16.03;;;13.40;;
23684;SDS011;12020;51.384;6.908;2023-01-31T15:17:24;15.63;;;13.55;;
23684;SDS011;12020;51.384;6.908;2023-01-31T15:19:56;15.65;;;12.85;;
23684;SDS011;12020;51.384;6.908;2023-01-31T15:22:45;16.00;;;13.23;;
23684;SDS011;12020;51.384;6.908;2023-01-31T15:25:22;18.23;;;13.88;;
23684;SDS011;12020;51.384;6.908;2023-01-31T15:27:53;17.15;;;15.10;;
23684;SDS011;12020;51.384;6.908;2023-01-31T15:30:22;19.67;;;15.88;;
23684;SDS011;12020;51.384;6.908;2023-01-31T15:41:42;21.17;;;17.13;;
23684;SDS011;12020;51.384;6.908;2023-01-31T15:44:23;20.55;;;18.00;;
23684;SDS011;12020;51.384;6.908;2023-01-31T15:46:54;19.58;;;17.10;;
23684;SDS011;12020;51.384;6.908;2023-01-31T15:49:27;21.53;;;18.50;;
23684;SDS011;12020;51.384;6.908;2023-01-31T15:52:21;22.75;;;19.65;;
23684;SDS011;12020;51.384;6.908;2023-01-31T15:54:56;24.83;;;20.03;;
23684;SDS011;12020;51.384;6.908;2023-01-31T16:00:25;26.80;;;22.17;;
23684;SDS011;12020;51.384;6.908;2023-01-31T16:03:02;24.05;;;21.55;;
23684;SDS011;12020;51.384;6.908;2023-01-31T16:05:50;28.75;;;23.70;;
23684;SDS011;12020;51.384;6.908;2023-01-31T16:08:28;25.75;;;22.95;;
23684;SDS011;12020;51.384;6.908;2023-01-31T16:11:05;26.38;;;22.48;;
23684;SDS011;12020;51.384;6.908;2023-01-31T16:13:38;25.03;;;20.50;;
23684;SDS011;12020;51.384;6.908;2023-01-31T16:16:06;23.63;;;19.23;;
23684;SDS011;12020;51.384;6.908;2023-01-31T16:18:47;21.30;;;17.35;;
23684;SDS011;12020;51.384;6.908;2023-01-31T16:24:11;19.48;;;16.83;;
23684;SDS011;12020;51.384;6.908;2023-01-31T16:27:06;18.55;;;15.75;;
23684;SDS011;12020;51.384;6.908;2023-01-31T16:29:50;17.05;;;15.23;;
23684;SDS011;12020;51.384;6.908;2023-01-31T16:32:30;16.33;;;14.15;;
23684;SDS011;12020;51.384;6.908;2023-01-31T16:34:59;19.00;;;14.37;;
23684;SDS011;12020;51.384;6.908;2023-01-31T16:37:37;17.45;;;13.80;;
23684;SDS011;12020;51.384;6.908;2023-01-31T16:40:19;19.23;;;14.05;;
23684;SDS011;12020;51.384;6.908;2023-01-31T16:42:47;17.75;;;13.68;;
23684;SDS011;12020;51.384;6.908;2023-01-31T16:45:30;19.67;;;14.38;;
23684;SDS011;12020;51.384;6.908;2023-01-31T16:57:04;22.70;;;17.77;;
23684;SDS011;12020;51.384;6.908;2023-01-31T17:02:15;19.38;;;16.17;;
23684;SDS011;12020;51.384;6.908;2023-01-31T17:04:48;19.40;;;15.98;;
23684;SDS011;12020;51.384;6.908;2023-01-31T17:07:21;19.17;;;15.98;;
23684;SDS011;12020;51.384;6.908;2023-01-31T17:09:56;18.92;;;15.80;;
23684;SDS011;12020;51.384;6.908;2023-01-31T17:12:30;20.67;;;15.95;;
23684;SDS011;12020;51.384;6.908;2023-01-31T17:14:59;19.63;;;15.50;;
23684;SDS011;12020;51.384;6.908;2023-01-31T17:17:32;17.85;;;15.50;;
23684;SDS011;12020;51.384;6.908;2023-01-31T17:20:07;19.17;;;15.68;;
23684;SDS011;12020;51.384;6.908;2023-01-31T17:22:37;19.00;;;15.75;;
23684;SDS011;12020;51.384;6.908;2023-01-31T17:25:10;20.00;;;15.60;;
23684;SDS011;12020;51.384;6.908;2023-01-31T17:27:44;17.92;;;13.30;;
23684;SDS011;12020;51.384;6.908;2023-01-31T17:30:12;18.75;;;13.10;;
23684;SDS011;12020;51.384;6.908;2023-01-31T17:33:01;17.17;;;13.45;;
23684;SDS011;12020;51.384;6.908;2023-01-31T17:35:37;17.37;;;13.20;;
23684;SDS011;12020;51.384;6.908;2023-01-31T17:38:04;17.60;;;12.88;;
23684;SDS011;12020;51.384;6.908;2023-01-31T17:40:31;16.17;;;12.30;;
23684;SDS011;12020;51.384;6.908;2023-01-31T17:43:04;16.52;;;11.93;;
23684;SDS011;12020;51.384;6.908;2023-01-31T17:45:30;17.15;;;12.63;;
23684;SDS011;12020;51.384;6.908;2023-01-31T17:47:57;19.40;;;12.38;;
23684;SDS011;12020;51.384;6.908;2023-01-31T17:50:43;18.73;;;13.20;;
23684;SDS011;12020;51.384;6.908;2023-01-31T17:53:14;18.80;;;13.55;;
23684;SDS011;12020;51.384;6.908;2023-01-31T17:55:41;19.00;;;14.40;;
23684;SDS011;12020;51.384;6.908;2023-01-31T17:58:14;18.52;;;13.77;;
23684;SDS011;12020;51.384;6.908;2023-01-31T18:00:42;18.30;;;14.82;;
23684;SDS011;12020;51.384;6.908;2023-01-31T18:03:20;19.52;;;15.10;;
23684;SDS011;12020;51.384;6.908;2023-01-31T18:06:04;18.38;;;14.48;;
23684;SDS011;12020;51.384;6.908;2023-01-31T18:09:02;18.17;;;15.02;;
23684;SDS011;12020;51.384;6.908;2023-01-31T18:11:28;19.83;;;14.40;;
23684;SDS011;12020;51.384;6.908;2023-01-31T18:16:49;18.65;;;14.13;;
23684;SDS011;12020;51.384;6.908;2023-01-31T18:19:19;21.00;;;14.35;;
23684;SDS011;12020;51.384;6.908;2023-01-31T18:21:47;21.50;;;13.52;;
23684;SDS011;12020;51.384;6.908;2023-01-31T18:24:14;18.90;;;12.50;;
23684;SDS011;12020;51.384;6.908;2023-01-31T18:26:41;18.05;;;10.82;;
23684;SDS011;12020;51.384;6.908;2023-01-31T18:29:08;17.05;;;11.27;;
23684;SDS011;12020;51.384;6.908;2023-01-31T18:31:34;16.55;;;10.70;;
23684;SDS011;12020;51.384;6.908;2023-01-31T18:34:00;16.08;;;10.10;;
23684;SDS011;12020;51.384;6.908;2023-01-31T18:36:25;18.05;;;11.23;;
23684;SDS011;12020;51.384;6.908;2023-01-31T18:38:51;13.65;;;9.57;;
23684;SDS011;12020;51.384;6.908;2023-01-31T18:41:18;19.52;;;9.73;;
23684;SDS011;12020;51.384;6.908;2023-01-31T18:43:47;15.32;;;9.25;;
23684;SDS011;12020;51.384;6.908;2023-01-31T18:46:13;16.55;;;9.60;;
23684;SDS011;12020;51.384;6.908;2023-01-31T18:48:39;16.80;;;9.40;;
23684;SDS011;12020;51.384;6.908;2023-01-31T18:51:06;17.77;;;9.63;;
23684;SDS011;12020;51.384;6.908;2023-01-31T18:53:39;13.88;;;9.35;;
23684;SDS011;12020;51.384;6.908;2023-01-31T18:56:09;16.15;;;8.45;;
23684;SDS011;12020;51.384;6.908;2023-01-31T18:58:37;14.20;;;7.07;;
23684;SDS011;12020;51.384;6.908;2023-01-31T19:01:08;13.73;;;7.90;;
23684;SDS011;12020;51.384;6.908;2023-01-31T19:03:39;14.68;;;7.45;;
23684;SDS011;12020;51.384;6.908;2023-01-31T19:06:10;13.18;;;7.30;;
23684;SDS011;12020;51.384;6.908;2023-01-31T19:08:37;13.88;;;6.60;;
23684;SDS011;12020;51.384;6.908;2023-01-31T19:11:04;15.77;;;7.88;;
23684;SDS011;12020;51.384;6.908;2023-01-31T19:13:31;17.25;;;8.68;;
23684;SDS011;12020;51.384;6.908;2023-01-31T19:15:58;16.85;;;9.25;;
23684;SDS011;12020;51.384;6.908;2023-01-31T19:18:25;17.95;;;9.40;;
23684;SDS011;12020;51.384;6.908;2023-01-31T19:20:51;17.65;;;9.45;;